sensor_id;sensor_type;location;lat;lon;timestamp;P1;durP1;ratioP1;P2;durP2;ratioP2
4724;SDS011;2376;53.544;10.226;2022-10-31T00:00:56;13.33;;;11.87;;
4724;SDS011;2376;53.544;10.226;2022-10-31T00:03:24;14.27;;;12.83;;
4724;SDS011;2376;53.544;10.226;2022-10-31T00:05:51;17.17;;;12.17;;
4724;SDS011;2376;53.544;10.226;2022-10-31T00:08:18;12.43;;;11.03;;
4724;SDS011;2376;53.544;10.226;2022-10-31T00:10:45;13.23;;;10.67;;
4724;SDS011;2376;53.544;10.226;2022-10-31T00:13:13;15.03;;;12.13;;
4724;SDS011;2376;53.544;10.226;2022-10-31T00:15:41;16.50;;;12.77;;
4724;SDS011;2376;53.544;10.226;2022-10-31T00:18:09;12.30;;;11.10;;
4724;SDS011;2376;53.544;10.226;2022-10-31T00:20:37;13.47;;;12.10;;
4724;SDS011;2376;53.544;10.226;2022-10-31T00:23:05;13.10;;;11.80;;
4724;SDS011;2376;53.544;10.226;2022-10-31T00:25:33;13.90;;;12.57;;
4724;SDS011;2376;53.544;10.226;2022-10-31T00:28:01;13.93;;;12.50;;
4724;SDS011;2376;53.544;10.226;2022-10-31T00:30:27;14.20;;;12.70;;
4724;SDS011;2376;53.544;10.226;2022-10-31T00:32:54;15.37;;;13.77;;
4724;SDS011;2376;53.544;10.226;2022-10-31T00:35:23;16.93;;;13.33;;
4724;SDS011;2376;53.544;10.226;2022-10-31T00:37:49;18.13;;;13.77;;
4724;SDS011;2376;53.544;10.226;2022-10-31T00:40:16;22.30;;;15.30;;
4724;SDS011;2376;53.544;10.226;2022-10-31T00:42:43;20.83;;;16.63;;
4724;SDS011;2376;53.544;10.226;2022-10-31T00:45:10;15.30;;;13.03;;
4724;SDS011;2376;53.544;10.226;2022-10-31T00:47:37;15.63;;;14.03;;
4724;SDS011;2376;53.544;10.226;2022-10-31T00:50:04;18.57;;;13.27;;
4724;SDS011;2376;53.544;10.226;2022-10-31T00:52:33;16.80;;;12.30;;
4724;SDS011;2376;53.544;10.226;2022-10-31T00:54:59;15.20;;;13.63;;
4724;SDS011;2376;53.544;10.226;2022-10-31T00:57:26;15.70;;;13.17;;
4724;SDS011;2376;53.544;10.226;2022-10-31T00:59:53;16.00;;;14.50;;
4724;SDS011;2376;53.544;10.226;2022-10-31T01:02:19;21.10;;;14.83;;
4724;SDS011;2376;53.544;10.226;2022-10-31T01:04:46;15.90;;;13.67;;
4724;SDS011;2376;53.544;10.226;2022-10-31T01:07:13;17.67;;;13.47;;
4724;SDS011;2376;53.544;10.226;2022-10-31T01:09:41;17.93;;;13.67;;
4724;SDS011;2376;53.544;10.226;2022-10-31T01:12:08;18.57;;;13.20;;
4724;SDS011;2376;53.544;10.226;2022-10-31T01:14:34;18.23;;;13.20;;
4724;SDS011;2376;53.544;10.226;2022-10-31T01:17:01;16.33;;;14.10;;
4724;SDS011;2376;53.544;10.226;2022-10-31T01:19:28;17.60;;;12.77;;
4724;SDS011;2376;53.544;10.226;2022-10-31T01:21:55;18.27;;;13.20;;
4724;SDS011;2376;53.544;10.226;2022-10-31T01:24:22;16.67;;;13.50;;
4724;SDS011;2376;53.544;10.226;2022-10-31T01:26:50;17.77;;;13.40;;
4724;SDS011;2376;53.544;10.226;2022-10-31T01:29:20;20.47;;;11.90;;
4724;SDS011;2376;53.544;10.226;2022-10-31T01:31:46;18.37;;;13.13;;
4724;SDS011;2376;53.544;10.226;2022-10-31T01:34:15;15.77;;;14.13;;
4724;SDS011;2376;53.544;10.226;2022-10-31T01:36:44;16.70;;;13.17;;
4724;SDS011;2376;53.544;10.226;2022-10-31T01:39:16;15.50;;;14.00;;
4724;SDS011;2376;53.544;10.226;2022-10-31T01:41:44;20.57;;;16.07;;
4724;SDS011;2376;53.544;10.226;2022-10-31T01:47:29;19.07;;;15.67;;
4724;SDS011;2376;53.544;10.226;2022-10-31T01:50:00;21.70;;;17.60;;
4724;SDS011;2376;53.544;10.226;2022-10-31T01:52:31;19.40;;;17.60;;
4724;SDS011;2376;53.544;10.226;2022-10-31T01:55:03;23.57;;;17.20;;
4724;SDS011;2376;53.544;10.226;2022-10-31T01:57:33;22.73;;;18.67;;
4724;SDS011;2376;53.544;10.226;2022-10-31T02:00:04;20.23;;;18.13;;
4724;SDS011;2376;53.544;10.226;2022-10-31T02:02:35;27.83;;;19.50;;
4724;SDS011;2376;53.544;10.226;2022-10-31T02:05:04;30.07;;;18.33;;
4724;SDS011;2376;53.544;10.226;2022-10-31T02:07:36;22.10;;;19.00;;
4724;SDS011;2376;53.544;10.226;2022-10-31T02:10:07;21.27;;;17.57;;
4724;SDS011;2376;53.544;10.226;2022-10-31T02:12:34;24.47;;;20.30;;
4724;SDS011;2376;53.544;10.226;2022-10-31T02:15:02;28.73;;;19.10;;
4724;SDS011;2376;53.544;10.226;2022-10-31T02:17:30;25.97;;;20.07;;
4724;SDS011;2376;53.544;10.226;2022-10-31T02:20:04;23.77;;;20.13;;
4724;SDS011;2376;53.544;10.226;2022-10-31T02:22:40;23.80;;;19.17;;
4724;SDS011;2376;53.544;10.226;2022-10-31T02:25:22;24.60;;;20.17;;
4724;SDS011;2376;53.544;10.226;2022-10-31T02:28:13;31.67;;;21.73;;
4724;SDS011;2376;53.544;10.226;2022-10-31T02:31:01;26.87;;;19.50;;
4724;SDS011;2376;53.544;10.226;2022-10-31T02:33:41;25.43;;;21.60;;
4724;SDS011;2376;53.544;10.226;2022-10-31T02:36:13;25.27;;;19.63;;
4724;SDS011;2376;53.544;10.226;2022-10-31T02:38:47;38.27;;;20.87;;
4724;SDS011;2376;53.544;10.226;2022-10-31T02:41:24;25.90;;;20.67;;
4724;SDS011;2376;53.544;10.226;2022-10-31T02:43:58;21.37;;;19.10;;
4724;SDS011;2376;53.544;10.226;2022-10-31T02:46:35;23.30;;;20.00;;
4724;SDS011;2376;53.544;10.226;2022-10-31T02:49:10;28.17;;;20.87;;
4724;SDS011;2376;53.544;10.226;2022-10-31T02:51:44;29.60;;;21.07;;
4724;SDS011;2376;53.544;10.226;2022-10-31T02:54:18;32.83;;;20.93;;
4724;SDS011;2376;53.544;10.226;2022-10-31T02:56:47;27.17;;;20.63;;
4724;SDS011;2376;53.544;10.226;2022-10-31T02:59:17;23.73;;;19.43;;
4724;SDS011;2376;53.544;10.226;2022-10-31T03:01:52;26.53;;;21.23;;
4724;SDS011;2376;53.544;10.226;2022-10-31T03:07:21;25.83;;;22.50;;
4724;SDS011;2376;53.544;10.226;2022-10-31T03:09:53;27.43;;;20.93;;
4724;SDS011;2376;53.544;10.226;2022-10-31T03:12:28;31.33;;;23.17;;
4724;SDS011;2376;53.544;10.226;2022-10-31T03:15:05;26.20;;;21.40;;
4724;SDS011;2376;53.544;10.226;2022-10-31T03:17:41;28.23;;;23.20;;
4724;SDS011;2376;53.544;10.226;2022-10-31T03:20:16;30.67;;;23.20;;
4724;SDS011;2376;53.544;10.226;2022-10-31T03:22:48;30.60;;;24.17;;
4724;SDS011;2376;53.544;10.226;2022-10-31T03:25:14;26.07;;;23.27;;
4724;SDS011;2376;53.544;10.226;2022-10-31T03:27:43;29.83;;;23.47;;
4724;SDS011;2376;53.544;10.226;2022-10-31T03:30:11;33.47;;;23.30;;
4724;SDS011;2376;53.544;10.226;2022-10-31T03:32:40;34.27;;;24.67;;
4724;SDS011;2376;53.544;10.226;2022-10-31T03:35:11;34.67;;;23.77;;
4724;SDS011;2376;53.544;10.226;2022-10-31T03:37:41;33.57;;;23.30;;
4724;SDS011;2376;53.544;10.226;2022-10-31T03:40:08;35.27;;;26.40;;
4724;SDS011;2376;53.544;10.226;2022-10-31T03:42:38;34.60;;;24.70;;
4724;SDS011;2376;53.544;10.226;2022-10-31T03:45:08;34.97;;;24.30;;
4724;SDS011;2376;53.544;10.226;2022-10-31T03:47:40;32.23;;;23.90;;
4724;SDS011;2376;53.544;10.226;2022-10-31T03:50:08;34.30;;;22.87;;
4724;SDS011;2376;53.544;10.226;2022-10-31T03:52:40;30.60;;;23.20;;
4724;SDS011;2376;53.544;10.226;2022-10-31T03:55:15;38.43;;;25.03;;
4724;SDS011;2376;53.544;10.226;2022-10-31T03:57:45;32.00;;;24.30;;
4724;SDS011;2376;53.544;10.226;2022-10-31T04:00:17;33.80;;;25.40;;
4724;SDS011;2376;53.544;10.226;2022-10-31T04:02:47;36.50;;;26.00;;
4724;SDS011;2376;53.544;10.226;2022-10-31T04:05:18;33.13;;;23.80;;
4724;SDS011;2376;53.544;10.226;2022-10-31T04:07:47;37.83;;;26.20;;
4724;SDS011;2376;53.544;10.226;2022-10-31T04:10:17;31.60;;;24.77;;
4724;SDS011;2376;53.544;10.226;2022-10-31T04:12:46;40.60;;;26.60;;
4724;SDS011;2376;53.544;10.226;2022-10-31T04:15:17;37.17;;;25.00;;
4724;SDS011;2376;53.544;10.226;2022-10-31T04:17:46;37.40;;;25.53;;
4724;SDS011;2376;53.544;10.226;2022-10-31T04:20:16;37.03;;;24.33;;
4724;SDS011;2376;53.544;10.226;2022-10-31T04:22:44;47.70;;;28.33;;
4724;SDS011;2376;53.544;10.226;2022-10-31T04:25:10;32.40;;;24.10;;
4724;SDS011;2376;53.544;10.226;2022-10-31T04:27:37;41.70;;;25.30;;
4724;SDS011;2376;53.544;10.226;2022-10-31T04:30:04;36.73;;;26.17;;
4724;SDS011;2376;53.544;10.226;2022-10-31T04:32:31;37.97;;;26.43;;
4724;SDS011;2376;53.544;10.226;2022-10-31T04:34:59;34.60;;;25.33;;
4724;SDS011;2376;53.544;10.226;2022-10-31T04:37:26;35.40;;;24.80;;
4724;SDS011;2376;53.544;10.226;2022-10-31T04:39:53;35.70;;;24.67;;
4724;SDS011;2376;53.544;10.226;2022-10-31T04:42:19;31.43;;;25.63;;
4724;SDS011;2376;53.544;10.226;2022-10-31T04:44:46;30.80;;;24.37;;
4724;SDS011;2376;53.544;10.226;2022-10-31T04:47:13;34.30;;;26.13;;
4724;SDS011;2376;53.544;10.226;2022-10-31T04:49:39;31.63;;;24.00;;
4724;SDS011;2376;53.544;10.226;2022-10-31T04:52:07;31.63;;;25.07;;
4724;SDS011;2376;53.544;10.226;2022-10-31T04:54:34;34.30;;;26.33;;
4724;SDS011;2376;53.544;10.226;2022-10-31T04:57:01;34.80;;;24.40;;
4724;SDS011;2376;53.544;10.226;2022-10-31T04:59:27;35.33;;;24.00;;
4724;SDS011;2376;53.544;10.226;2022-10-31T05:01:54;39.03;;;25.27;;
4724;SDS011;2376;53.544;10.226;2022-10-31T05:04:21;36.27;;;24.57;;
4724;SDS011;2376;53.544;10.226;2022-10-31T05:06:47;36.37;;;23.47;;
4724;SDS011;2376;53.544;10.226;2022-10-31T05:09:15;33.33;;;24.30;;
4724;SDS011;2376;53.544;10.226;2022-10-31T05:11:42;41.97;;;26.00;;
4724;SDS011;2376;53.544;10.226;2022-10-31T05:14:09;33.30;;;25.10;;
4724;SDS011;2376;53.544;10.226;2022-10-31T05:16:35;42.00;;;26.47;;
4724;SDS011;2376;53.544;10.226;2022-10-31T05:19:02;33.97;;;25.83;;
4724;SDS011;2376;53.544;10.226;2022-10-31T05:21:28;35.70;;;23.40;;
4724;SDS011;2376;53.544;10.226;2022-10-31T05:23:55;35.03;;;23.67;;
4724;SDS011;2376;53.544;10.226;2022-10-31T05:26:23;39.30;;;26.07;;
4724;SDS011;2376;53.544;10.226;2022-10-31T05:28:50;36.63;;;25.10;;
4724;SDS011;2376;53.544;10.226;2022-10-31T05:31:19;33.80;;;24.03;;
4724;SDS011;2376;53.544;10.226;2022-10-31T05:33:45;36.90;;;26.93;;
4724;SDS011;2376;53.544;10.226;2022-10-31T05:36:12;38.57;;;25.93;;
4724;SDS011;2376;53.544;10.226;2022-10-31T05:38:38;38.47;;;27.10;;
4724;SDS011;2376;53.544;10.226;2022-10-31T05:41:05;38.53;;;27.60;;
4724;SDS011;2376;53.544;10.226;2022-10-31T05:43:33;34.30;;;26.93;;
4724;SDS011;2376;53.544;10.226;2022-10-31T05:46:00;40.80;;;26.83;;
4724;SDS011;2376;53.544;10.226;2022-10-31T05:48:26;41.30;;;28.07;;
4724;SDS011;2376;53.544;10.226;2022-10-31T05:50:53;45.13;;;26.10;;
4724;SDS011;2376;53.544;10.226;2022-10-31T05:53:20;46.60;;;30.07;;
4724;SDS011;2376;53.544;10.226;2022-10-31T05:55:46;41.07;;;29.37;;
4724;SDS011;2376;53.544;10.226;2022-10-31T05:58:13;38.90;;;28.20;;
4724;SDS011;2376;53.544;10.226;2022-10-31T06:00:41;38.97;;;27.10;;
4724;SDS011;2376;53.544;10.226;2022-10-31T06:03:08;40.70;;;28.03;;
4724;SDS011;2376;53.544;10.226;2022-10-31T06:05:35;47.90;;;29.60;;
4724;SDS011;2376;53.544;10.226;2022-10-31T06:08:02;45.10;;;30.30;;
4724;SDS011;2376;53.544;10.226;2022-10-31T06:10:29;48.53;;;29.33;;
4724;SDS011;2376;53.544;10.226;2022-10-31T06:12:56;43.73;;;27.67;;
4724;SDS011;2376;53.544;10.226;2022-10-31T06:15:22;44.47;;;29.33;;
4724;SDS011;2376;53.544;10.226;2022-10-31T06:17:58;57.47;;;31.37;;
4724;SDS011;2376;53.544;10.226;2022-10-31T06:20:26;40.93;;;28.97;;
4724;SDS011;2376;53.544;10.226;2022-10-31T06:22:54;45.80;;;29.57;;
4724;SDS011;2376;53.544;10.226;2022-10-31T06:25:20;55.50;;;30.17;;
4724;SDS011;2376;53.544;10.226;2022-10-31T06:27:47;52.00;;;31.87;;
4724;SDS011;2376;53.544;10.226;2022-10-31T06:30:14;48.30;;;28.93;;
4724;SDS011;2376;53.544;10.226;2022-10-31T06:32:41;45.83;;;29.33;;
4724;SDS011;2376;53.544;10.226;2022-10-31T06:35:09;45.47;;;29.00;;
4724;SDS011;2376;53.544;10.226;2022-10-31T06:37:36;62.60;;;30.47;;
4724;SDS011;2376;53.544;10.226;2022-10-31T06:40:03;46.07;;;29.33;;
4724;SDS011;2376;53.544;10.226;2022-10-31T06:42:30;51.10;;;29.50;;
4724;SDS011;2376;53.544;10.226;2022-10-31T06:44:57;59.83;;;31.67;;
4724;SDS011;2376;53.544;10.226;2022-10-31T06:47:23;48.30;;;32.73;;
4724;SDS011;2376;53.544;10.226;2022-10-31T06:49:50;49.80;;;32.27;;
4724;SDS011;2376;53.544;10.226;2022-10-31T06:52:18;49.13;;;29.90;;
4724;SDS011;2376;53.544;10.226;2022-10-31T06:54:45;53.77;;;31.53;;
4724;SDS011;2376;53.544;10.226;2022-10-31T06:57:11;57.43;;;32.37;;
4724;SDS011;2376;53.544;10.226;2022-10-31T06:59:38;52.57;;;31.17;;
4724;SDS011;2376;53.544;10.226;2022-10-31T07:02:05;48.33;;;29.93;;
4724;SDS011;2376;53.544;10.226;2022-10-31T07:04:34;51.57;;;30.50;;
4724;SDS011;2376;53.544;10.226;2022-10-31T07:07:01;48.97;;;30.50;;
4724;SDS011;2376;53.544;10.226;2022-10-31T07:09:29;50.73;;;30.20;;
4724;SDS011;2376;53.544;10.226;2022-10-31T07:11:56;59.57;;;30.17;;
4724;SDS011;2376;53.544;10.226;2022-10-31T07:14:22;55.50;;;29.43;;
4724;SDS011;2376;53.544;10.226;2022-10-31T07:16:49;46.73;;;29.80;;
4724;SDS011;2376;53.544;10.226;2022-10-31T07:19:16;58.47;;;30.03;;
4724;SDS011;2376;53.544;10.226;2022-10-31T07:21:43;52.67;;;31.67;;
4724;SDS011;2376;53.544;10.226;2022-10-31T07:24:10;54.40;;;32.00;;
4724;SDS011;2376;53.544;10.226;2022-10-31T07:26:38;57.63;;;28.37;;
4724;SDS011;2376;53.544;10.226;2022-10-31T07:29:04;52.33;;;31.27;;
4724;SDS011;2376;53.544;10.226;2022-10-31T07:31:31;58.43;;;29.67;;
4724;SDS011;2376;53.544;10.226;2022-10-31T07:33:58;76.40;;;36.13;;
4724;SDS011;2376;53.544;10.226;2022-10-31T07:36:25;75.17;;;33.43;;
4724;SDS011;2376;53.544;10.226;2022-10-31T07:38:51;55.93;;;33.23;;
4724;SDS011;2376;53.544;10.226;2022-10-31T07:41:18;75.47;;;35.30;;
4724;SDS011;2376;53.544;10.226;2022-10-31T07:43:46;82.70;;;35.73;;
4724;SDS011;2376;53.544;10.226;2022-10-31T07:46:12;81.70;;;36.63;;
4724;SDS011;2376;53.544;10.226;2022-10-31T07:48:39;81.60;;;36.67;;
4724;SDS011;2376;53.544;10.226;2022-10-31T07:51:06;74.40;;;35.33;;
4724;SDS011;2376;53.544;10.226;2022-10-31T07:53:33;87.97;;;39.27;;
4724;SDS011;2376;53.544;10.226;2022-10-31T07:55:59;88.33;;;35.73;;
4724;SDS011;2376;53.544;10.226;2022-10-31T07:58:26;72.00;;;34.27;;
4724;SDS011;2376;53.544;10.226;2022-10-31T08:00:54;91.50;;;36.63;;
4724;SDS011;2376;53.544;10.226;2022-10-31T08:03:21;96.47;;;34.07;;
4724;SDS011;2376;53.544;10.226;2022-10-31T08:05:47;87.73;;;36.93;;
4724;SDS011;2376;53.544;10.226;2022-10-31T08:08:14;75.97;;;34.40;;
4724;SDS011;2376;53.544;10.226;2022-10-31T08:10:41;68.23;;;35.43;;
4724;SDS011;2376;53.544;10.226;2022-10-31T08:13:09;79.97;;;34.10;;
4724;SDS011;2376;53.544;10.226;2022-10-31T08:15:37;70.07;;;33.20;;
4724;SDS011;2376;53.544;10.226;2022-10-31T08:18:10;72.53;;;29.37;;
4724;SDS011;2376;53.544;10.226;2022-10-31T08:20:38;70.90;;;32.80;;
4724;SDS011;2376;53.544;10.226;2022-10-31T08:23:04;73.57;;;32.00;;
4724;SDS011;2376;53.544;10.226;2022-10-31T08:25:32;64.37;;;30.47;;
4724;SDS011;2376;53.544;10.226;2022-10-31T08:28:00;63.73;;;29.93;;
4724;SDS011;2376;53.544;10.226;2022-10-31T08:30:27;60.97;;;29.90;;
4724;SDS011;2376;53.544;10.226;2022-10-31T08:32:59;65.70;;;31.07;;
4724;SDS011;2376;53.544;10.226;2022-10-31T08:35:28;59.47;;;28.93;;
4724;SDS011;2376;53.544;10.226;2022-10-31T08:37:55;67.40;;;31.17;;
4724;SDS011;2376;53.544;10.226;2022-10-31T08:40:23;63.07;;;30.90;;
4724;SDS011;2376;53.544;10.226;2022-10-31T08:42:58;60.23;;;28.03;;
4724;SDS011;2376;53.544;10.226;2022-10-31T08:45:25;62.60;;;28.17;;
4724;SDS011;2376;53.544;10.226;2022-10-31T08:47:56;56.10;;;29.00;;
4724;SDS011;2376;53.544;10.226;2022-10-31T08:50:23;53.40;;;28.57;;
4724;SDS011;2376;53.544;10.226;2022-10-31T08:52:51;64.67;;;29.87;;
4724;SDS011;2376;53.544;10.226;2022-10-31T08:55:17;51.30;;;25.63;;
4724;SDS011;2376;53.544;10.226;2022-10-31T08:57:44;49.97;;;28.93;;
4724;SDS011;2376;53.544;10.226;2022-10-31T09:00:11;54.70;;;27.03;;
4724;SDS011;2376;53.544;10.226;2022-10-31T09:02:38;40.83;;;23.30;;
4724;SDS011;2376;53.544;10.226;2022-10-31T09:05:05;46.23;;;24.13;;
4724;SDS011;2376;53.544;10.226;2022-10-31T09:07:32;47.57;;;24.17;;
4724;SDS011;2376;53.544;10.226;2022-10-31T09:10:00;44.23;;;23.50;;
4724;SDS011;2376;53.544;10.226;2022-10-31T09:12:27;45.53;;;23.87;;
4724;SDS011;2376;53.544;10.226;2022-10-31T09:14:53;45.20;;;22.83;;
4724;SDS011;2376;53.544;10.226;2022-10-31T09:17:20;44.60;;;23.10;;
4724;SDS011;2376;53.544;10.226;2022-10-31T09:19:47;43.63;;;23.33;;
4724;SDS011;2376;53.544;10.226;2022-10-31T09:22:14;38.93;;;21.83;;
4724;SDS011;2376;53.544;10.226;2022-10-31T09:24:40;36.07;;;21.13;;
4724;SDS011;2376;53.544;10.226;2022-10-31T09:27:08;33.70;;;20.83;;
4724;SDS011;2376;53.544;10.226;2022-10-31T09:29:35;41.73;;;21.27;;
4724;SDS011;2376;53.544;10.226;2022-10-31T09:32:02;41.43;;;20.60;;
4724;SDS011;2376;53.544;10.226;2022-10-31T09:34:29;46.43;;;21.87;;
4724;SDS011;2376;53.544;10.226;2022-10-31T09:36:55;38.57;;;19.30;;
4724;SDS011;2376;53.544;10.226;2022-10-31T09:39:22;38.00;;;22.30;;
4724;SDS011;2376;53.544;10.226;2022-10-31T09:41:58;31.43;;;18.60;;
4724;SDS011;2376;53.544;10.226;2022-10-31T09:44:33;39.43;;;19.73;;
4724;SDS011;2376;53.544;10.226;2022-10-31T09:47:13;43.30;;;20.90;;
4724;SDS011;2376;53.544;10.226;2022-10-31T09:49:51;33.23;;;20.10;;
4724;SDS011;2376;53.544;10.226;2022-10-31T09:52:29;36.07;;;20.10;;
4724;SDS011;2376;53.544;10.226;2022-10-31T09:54:58;36.57;;;19.83;;
4724;SDS011;2376;53.544;10.226;2022-10-31T09:57:27;28.50;;;18.23;;
4724;SDS011;2376;53.544;10.226;2022-10-31T09:59:58;26.93;;;17.43;;
4724;SDS011;2376;53.544;10.226;2022-10-31T10:02:29;26.40;;;16.80;;
4724;SDS011;2376;53.544;10.226;2022-10-31T10:05:01;29.43;;;18.03;;
4724;SDS011;2376;53.544;10.226;2022-10-31T10:07:32;27.50;;;17.20;;
4724;SDS011;2376;53.544;10.226;2022-10-31T10:10:12;26.63;;;17.97;;
4724;SDS011;2376;53.544;10.226;2022-10-31T10:12:43;27.63;;;17.10;;
4724;SDS011;2376;53.544;10.226;2022-10-31T10:15:39;28.47;;;17.73;;
4724;SDS011;2376;53.544;10.226;2022-10-31T10:18:23;28.53;;;17.40;;
4724;SDS011;2376;53.544;10.226;2022-10-31T10:21:03;28.80;;;17.33;;
4724;SDS011;2376;53.544;10.226;2022-10-31T10:23:45;25.33;;;16.33;;
4724;SDS011;2376;53.544;10.226;2022-10-31T10:26:25;27.97;;;16.17;;
4724;SDS011;2376;53.544;10.226;2022-10-31T10:28:57;24.10;;;16.10;;
4724;SDS011;2376;53.544;10.226;2022-10-31T10:31:30;26.00;;;16.47;;
4724;SDS011;2376;53.544;10.226;2022-10-31T10:34:05;20.10;;;15.70;;
4724;SDS011;2376;53.544;10.226;2022-10-31T10:36:38;23.80;;;15.83;;
4724;SDS011;2376;53.544;10.226;2022-10-31T10:39:10;22.37;;;16.43;;
4724;SDS011;2376;53.544;10.226;2022-10-31T10:41:48;23.80;;;16.67;;
4724;SDS011;2376;53.544;10.226;2022-10-31T10:44:29;30.37;;;17.83;;
4724;SDS011;2376;53.544;10.226;2022-10-31T10:47:15;26.90;;;18.07;;
4724;SDS011;2376;53.544;10.226;2022-10-31T10:49:59;33.60;;;20.67;;
4724;SDS011;2376;53.544;10.226;2022-10-31T10:52:36;27.10;;;17.20;;
4724;SDS011;2376;53.544;10.226;2022-10-31T10:55:11;27.50;;;15.60;;
4724;SDS011;2376;53.544;10.226;2022-10-31T10:57:47;34.07;;;18.53;;
4724;SDS011;2376;53.544;10.226;2022-10-31T11:00:21;29.90;;;17.80;;
4724;SDS011;2376;53.544;10.226;2022-10-31T11:02:51;22.93;;;15.13;;
4724;SDS011;2376;53.544;10.226;2022-10-31T11:05:21;21.67;;;16.93;;
4724;SDS011;2376;53.544;10.226;2022-10-31T11:07:56;26.43;;;17.93;;
4724;SDS011;2376;53.544;10.226;2022-10-31T11:10:22;24.23;;;17.63;;
4724;SDS011;2376;53.544;10.226;2022-10-31T11:15:49;27.83;;;17.30;;
4724;SDS011;2376;53.544;10.226;2022-10-31T11:18:20;18.70;;;14.77;;
4724;SDS011;2376;53.544;10.226;2022-10-31T11:20:51;23.43;;;15.90;;
4724;SDS011;2376;53.544;10.226;2022-10-31T11:23:19;28.93;;;17.20;;
4724;SDS011;2376;53.544;10.226;2022-10-31T11:25:48;25.43;;;16.70;;
4724;SDS011;2376;53.544;10.226;2022-10-31T11:28:17;29.83;;;16.93;;
4724;SDS011;2376;53.544;10.226;2022-10-31T11:30:44;21.90;;;16.80;;
4724;SDS011;2376;53.544;10.226;2022-10-31T11:33:16;23.27;;;17.07;;
4724;SDS011;2376;53.544;10.226;2022-10-31T11:35:48;24.83;;;16.33;;
4724;SDS011;2376;53.544;10.226;2022-10-31T11:38:15;23.23;;;15.80;;
4724;SDS011;2376;53.544;10.226;2022-10-31T11:40:56;22.17;;;15.67;;
4724;SDS011;2376;53.544;10.226;2022-10-31T11:43:25;21.60;;;16.57;;
4724;SDS011;2376;53.544;10.226;2022-10-31T11:45:52;20.40;;;15.30;;
4724;SDS011;2376;53.544;10.226;2022-10-31T11:48:19;24.83;;;16.10;;
4724;SDS011;2376;53.544;10.226;2022-10-31T11:50:50;23.30;;;16.40;;
4724;SDS011;2376;53.544;10.226;2022-10-31T11:53:19;22.53;;;15.23;;
4724;SDS011;2376;53.544;10.226;2022-10-31T11:55:59;22.97;;;17.50;;
4724;SDS011;2376;53.544;10.226;2022-10-31T11:58:30;21.17;;;15.97;;
4724;SDS011;2376;53.544;10.226;2022-10-31T12:00:58;25.67;;;17.33;;
4724;SDS011;2376;53.544;10.226;2022-10-31T12:03:32;25.87;;;17.73;;
4724;SDS011;2376;53.544;10.226;2022-10-31T12:06:07;23.20;;;15.30;;
4724;SDS011;2376;53.544;10.226;2022-10-31T12:08:36;22.43;;;15.77;;
4724;SDS011;2376;53.544;10.226;2022-10-31T12:11:07;24.73;;;16.10;;
4724;SDS011;2376;53.544;10.226;2022-10-31T12:13:42;23.23;;;16.60;;
4724;SDS011;2376;53.544;10.226;2022-10-31T12:16:19;23.40;;;15.63;;
4724;SDS011;2376;53.544;10.226;2022-10-31T12:18:54;26.10;;;16.43;;
4724;SDS011;2376;53.544;10.226;2022-10-31T12:21:30;26.10;;;16.80;;
4724;SDS011;2376;53.544;10.226;2022-10-31T12:24:07;22.00;;;17.40;;
4724;SDS011;2376;53.544;10.226;2022-10-31T12:26:44;24.60;;;17.00;;
4724;SDS011;2376;53.544;10.226;2022-10-31T12:29:25;19.97;;;16.70;;
4724;SDS011;2376;53.544;10.226;2022-10-31T12:32:04;26.50;;;16.47;;
4724;SDS011;2376;53.544;10.226;2022-10-31T12:34:50;30.00;;;17.57;;
4724;SDS011;2376;53.544;10.226;2022-10-31T12:37:30;26.17;;;17.40;;
4724;SDS011;2376;53.544;10.226;2022-10-31T12:40:15;28.70;;;18.53;;
4724;SDS011;2376;53.544;10.226;2022-10-31T12:42:59;24.53;;;15.90;;
4724;SDS011;2376;53.544;10.226;2022-10-31T12:45:41;25.83;;;16.80;;
4724;SDS011;2376;53.544;10.226;2022-10-31T12:48:19;24.27;;;15.50;;
4724;SDS011;2376;53.544;10.226;2022-10-31T12:51:08;24.67;;;16.20;;
4724;SDS011;2376;53.544;10.226;2022-10-31T12:53:45;21.00;;;16.97;;
4724;SDS011;2376;53.544;10.226;2022-10-31T12:56:27;21.80;;;16.90;;
4724;SDS011;2376;53.544;10.226;2022-10-31T12:59:04;20.27;;;16.47;;
4724;SDS011;2376;53.544;10.226;2022-10-31T13:01:36;23.57;;;17.27;;
4724;SDS011;2376;53.544;10.226;2022-10-31T13:04:10;17.83;;;15.60;;
4724;SDS011;2376;53.544;10.226;2022-10-31T13:06:42;19.73;;;14.93;;
4724;SDS011;2376;53.544;10.226;2022-10-31T13:09:15;20.83;;;14.73;;
4724;SDS011;2376;53.544;10.226;2022-10-31T13:11:46;21.57;;;15.87;;
4724;SDS011;2376;53.544;10.226;2022-10-31T13:14:20;20.57;;;15.00;;
4724;SDS011;2376;53.544;10.226;2022-10-31T13:16:52;20.90;;;16.97;;
4724;SDS011;2376;53.544;10.226;2022-10-31T13:19:22;20.33;;;16.40;;
4724;SDS011;2376;53.544;10.226;2022-10-31T13:21:53;21.00;;;15.40;;
4724;SDS011;2376;53.544;10.226;2022-10-31T13:24:28;15.50;;;13.43;;
4724;SDS011;2376;53.544;10.226;2022-10-31T13:27:01;15.90;;;14.30;;
4724;SDS011;2376;53.544;10.226;2022-10-31T13:29:33;16.33;;;13.53;;
4724;SDS011;2376;53.544;10.226;2022-10-31T13:32:04;18.00;;;14.20;;
4724;SDS011;2376;53.544;10.226;2022-10-31T13:34:33;20.73;;;14.13;;
4724;SDS011;2376;53.544;10.226;2022-10-31T13:37:04;16.20;;;13.40;;
4724;SDS011;2376;53.544;10.226;2022-10-31T13:39:44;19.63;;;13.60;;
4724;SDS011;2376;53.544;10.226;2022-10-31T13:42:18;21.47;;;16.10;;
4724;SDS011;2376;53.544;10.226;2022-10-31T13:44:49;17.43;;;13.53;;
4724;SDS011;2376;53.544;10.226;2022-10-31T13:47:20;20.90;;;14.70;;
4724;SDS011;2376;53.544;10.226;2022-10-31T13:49:50;18.33;;;14.30;;
4724;SDS011;2376;53.544;10.226;2022-10-31T13:52:22;19.47;;;15.27;;
4724;SDS011;2376;53.544;10.226;2022-10-31T13:54:52;16.90;;;13.07;;
4724;SDS011;2376;53.544;10.226;2022-10-31T13:57:31;16.10;;;13.70;;
4724;SDS011;2376;53.544;10.226;2022-10-31T14:00:04;16.90;;;14.77;;
4724;SDS011;2376;53.544;10.226;2022-10-31T14:02:44;18.07;;;13.63;;
4724;SDS011;2376;53.544;10.226;2022-10-31T14:05:18;17.07;;;12.20;;
4724;SDS011;2376;53.544;10.226;2022-10-31T14:07:48;17.40;;;12.23;;
4724;SDS011;2376;53.544;10.226;2022-10-31T14:10:24;16.17;;;11.93;;
4724;SDS011;2376;53.544;10.226;2022-10-31T14:12:53;16.53;;;13.30;;
4724;SDS011;2376;53.544;10.226;2022-10-31T14:15:29;15.17;;;13.30;;
4724;SDS011;2376;53.544;10.226;2022-10-31T14:17:57;18.97;;;12.67;;
4724;SDS011;2376;53.544;10.226;2022-10-31T14:20:37;14.30;;;12.07;;
4724;SDS011;2376;53.544;10.226;2022-10-31T14:23:12;16.87;;;13.13;;
4724;SDS011;2376;53.544;10.226;2022-10-31T14:25:55;17.67;;;11.60;;
4724;SDS011;2376;53.544;10.226;2022-10-31T14:28:34;19.43;;;14.70;;
4724;SDS011;2376;53.544;10.226;2022-10-31T14:31:01;20.93;;;16.40;;
4724;SDS011;2376;53.544;10.226;2022-10-31T14:33:28;14.40;;;12.90;;
4724;SDS011;2376;53.544;10.226;2022-10-31T14:35:58;16.70;;;14.23;;
4724;SDS011;2376;53.544;10.226;2022-10-31T14:38:35;18.10;;;15.10;;
4724;SDS011;2376;53.544;10.226;2022-10-31T14:41:22;17.50;;;14.93;;
4724;SDS011;2376;53.544;10.226;2022-10-31T14:44:10;17.30;;;14.53;;
4724;SDS011;2376;53.544;10.226;2022-10-31T14:46:54;19.13;;;15.20;;
4724;SDS011;2376;53.544;10.226;2022-10-31T14:49:37;20.70;;;16.63;;
4724;SDS011;2376;53.544;10.226;2022-10-31T14:52:14;24.87;;;15.90;;
4724;SDS011;2376;53.544;10.226;2022-10-31T14:54:44;21.83;;;16.00;;
4724;SDS011;2376;53.544;10.226;2022-10-31T14:57:18;27.53;;;15.17;;
4724;SDS011;2376;53.544;10.226;2022-10-31T14:59:49;21.03;;;15.00;;
4724;SDS011;2376;53.544;10.226;2022-10-31T15:02:19;20.50;;;14.73;;